Burlington (BTV/KBTV)

Map

Destinations

Information

Location
Burlington, VT
Local Time
02:25 / 2:25 am
GMT Time
07:25 / 7:25 am
Gates
3
No FAA reported delays
METAR KBTV 200654Z AUTO 18015G22KT 10SM BKN085 00/M07 A2967 RMK AO2 SLP052 T00001067
TAF KBTV 200536Z 2006/2106 18013G20KT P6SM OVC100 FM201600 21009KT P6SM BKN060 FM202000 25008KT P6SM BKN090